createdAt,value
2023-05-02T00:00:49.825Z,94315.09
2023-05-02T00:03:17.299Z,94313.56
2023-05-02T00:05:44.605Z,94314.59
2023-05-02T00:08:12.040Z,94317.69
2023-05-02T00:10:38.620Z,94310.41
2023-05-02T00:13:05.111Z,94313.50
2023-05-02T00:15:31.529Z,94313.50
2023-05-02T00:17:58.081Z,94308.28
2023-05-02T00:20:24.699Z,94309.34
2023-05-02T00:22:51.148Z,94309.63
2023-05-02T00:25:17.670Z,94310.19
2023-05-02T00:27:46.598Z,94313.59
2023-05-02T00:30:14.071Z,94313.41
2023-05-02T00:32:40.726Z,94309.81
2023-05-02T00:35:08.101Z,94310.88
2023-05-02T00:37:34.718Z,94306.72
2023-05-02T00:40:02.017Z,94312.22
2023-05-02T00:42:31.731Z,94304.41
2023-05-02T00:44:58.320Z,94308.28
2023-05-02T00:47:24.946Z,94311.94
2023-05-02T00:49:51.541Z,94308.06
2023-05-02T00:52:18.662Z,94309.41
2023-05-02T00:54:45.524Z,94308.63
2023-05-02T00:57:11.954Z,94306.00
2023-05-02T00:59:39.062Z,94302.94
2023-05-02T01:02:31.932Z,94304.47
2023-05-02T01:05:20.085Z,94308.91
2023-05-02T01:08:05.447Z,94308.69
2023-05-02T01:10:47.646Z,94307.13
2023-05-02T01:13:20.796Z,94311.91
2023-05-02T01:15:51.575Z,94312.72
2023-05-02T01:18:22.412Z,94303.72
2023-05-02T01:20:57.295Z,94318.81
2023-05-02T01:23:32.782Z,94317.34
2023-05-02T01:26:23.632Z,94321.56
2023-05-02T01:28:59.492Z,94320.78
2023-05-02T01:31:28.975Z,94318.38
2023-05-02T01:33:57.417Z,94323.31
2023-05-02T01:36:27.047Z,94326.69
2023-05-02T01:38:55.772Z,94319.38
2023-05-02T01:41:26.330Z,94326.63
2023-05-02T01:43:56.714Z,94329.78
2023-05-02T01:46:25.365Z,94317.41
2023-05-02T01:48:52.994Z,94325.13
2023-05-02T01:51:21.445Z,94326.69
2023-05-02T01:53:50.340Z,94323.31
2023-05-02T01:56:19.565Z,94334.69
2023-05-02T01:58:47.598Z,94338.59
2023-05-02T02:01:15.516Z,94330.78
2023-05-02T02:03:43.399Z,94333.38
2023-05-02T02:06:11.258Z,94337.28
2023-05-02T02:08:38.605Z,94334.19
2023-05-02T02:11:10.686Z,94329.28
2023-05-02T02:13:41.986Z,94337.09
2023-05-02T02:16:11.321Z,94338.91
2023-05-02T02:18:39.339Z,94341.75
2023-05-02T02:21:11.248Z,94343.88
2023-05-02T02:23:39.753Z,94341.28
2023-05-02T02:26:07.974Z,94340.78
2023-05-02T02:28:34.617Z,94348.63
2023-05-02T02:31:01.401Z,94344.00
2023-05-02T02:33:31.661Z,94347.41
2023-05-02T02:36:13.419Z,94351.91
2023-05-02T02:38:48.148Z,94355.03
2023-05-02T02:41:21.017Z,94355.59
2023-05-02T02:44:19.147Z,94350.38
2023-05-02T02:47:05.857Z,94353.53
2023-05-02T02:49:50.867Z,94354.56
2023-05-02T02:52:50.447Z,94349.16
2023-05-02T02:55:37.352Z,94354.63
2023-05-02T02:58:25.629Z,94356.97
2023-05-02T03:00:53.130Z,94361.91
2023-05-02T03:03:22.577Z,94363.44
2023-05-02T03:05:51.678Z,94366.84
2023-05-02T03:08:18.206Z,94367.59
2023-05-02T03:10:44.674Z,94374.91
2023-05-02T03:13:11.164Z,94375.44
2023-05-02T03:15:51.439Z,94371.28
2023-05-02T03:18:22.288Z,94372.38
2023-05-02T03:20:48.710Z,94376.00
2023-05-02T03:23:15.208Z,94374.44
2023-05-02T03:25:41.963Z,94374.44
2023-05-02T03:28:11.673Z,94378.59
2023-05-02T03:30:40.761Z,94380.41
2023-05-02T03:33:08.943Z,94382.22
2023-05-02T03:35:36.997Z,94379.41
2023-05-02T03:38:03.431Z,94387.47
2023-05-02T03:40:29.923Z,94389.81
2023-05-02T03:42:57.335Z,94387.47
2023-05-02T03:45:29.622Z,94404.38
2023-05-02T03:47:56.386Z,94403.09
2023-05-02T03:50:23.654Z,94396.13
2023-05-02T03:52:51.961Z,94404.91
2023-05-02T03:55:25.112Z,94403.09
2023-05-02T03:57:52.038Z,94416.84
2023-05-02T04:00:18.617Z,94416.06
2023-05-02T04:02:52.113Z,94406.72
2023-05-02T04:05:22.110Z,94422.31
2023-05-02T04:07:49.826Z,94425.97
2023-05-02T04:10:18.020Z,94425.69
2023-05-02T04:12:51.100Z,94429.34
2023-05-02T04:15:18.759Z,94430.09
2023-05-02T04:17:47.083Z,94437.88
2023-05-02T04:20:15.727Z,94444.09
2023-05-02T04:22:48.076Z,94446.16
2023-05-02T04:25:15.231Z,94446.66
2023-05-02T04:27:42.689Z,94446.91
2023-05-02T04:30:12.508Z,94452.34
2023-05-02T04:32:41.328Z,94454.13
2023-05-02T04:35:10.044Z,94457.22
2023-05-02T04:37:38.123Z,94462.63
2023-05-02T04:40:06.191Z,94464.41
2023-05-02T04:42:32.771Z,94463.03
2023-05-02T04:45:09.308Z,94476.03
2023-05-02T04:47:36.276Z,94469.72
2023-05-02T04:50:02.931Z,94478.25
2023-05-02T04:52:30.538Z,94483.91
2023-05-02T04:54:57.375Z,94470.38
2023-05-02T04:57:24.591Z,94483.03
2023-05-02T04:59:55.121Z,94485.03
2023-05-02T05:02:21.702Z,94484.72
2023-05-02T05:04:48.236Z,94487.03
2023-05-02T05:07:16.207Z,94490.59
2023-05-02T05:09:46.436Z,94482.53
2023-05-02T05:12:13.756Z,94485.34
2023-05-02T05:14:40.379Z,94488.19
2023-05-02T05:17:07.581Z,94494.66
2023-05-02T05:19:34.668Z,94498.03
2023-05-02T05:22:01.732Z,94505.56
2023-05-02T05:24:28.215Z,94506.06
2023-05-02T05:26:57.159Z,94501.38
2023-05-02T05:29:23.800Z,94502.34
2023-05-02T05:31:50.374Z,94505.47
2023-05-02T05:34:19.497Z,94504.13
2023-05-02T05:36:47.109Z,94508.56
2023-05-02T05:39:13.825Z,94512.97
2023-05-02T05:41:43.197Z,94515.03
2023-05-02T05:44:11.325Z,94520.25
2023-05-02T05:46:38.316Z,94515.53
2023-05-02T05:49:06.383Z,94528.78
2023-05-02T05:51:33.713Z,94526.16
2023-05-02T05:54:00.710Z,94531.63
2023-05-02T05:56:28.070Z,94531.84
2023-05-02T05:59:00.712Z,94533.63
2023-05-02T06:01:27.127Z,94531.75
2023-05-02T06:03:54.407Z,94534.28
2023-05-02T06:06:21.135Z,94537.13
2023-05-02T06:08:47.618Z,94534.44
2023-05-02T06:11:14.428Z,94545.59
2023-05-02T06:13:40.897Z,94541.34
2023-05-02T06:16:08.233Z,94546.56
2023-05-02T06:18:35.118Z,94549.38
2023-05-02T06:21:05.682Z,94541.31
2023-05-02T06:23:33.350Z,94543.13
2023-05-02T06:26:01.278Z,94543.34
2023-05-02T06:28:28.230Z,94545.91
2023-05-02T06:31:05.892Z,94552.09
2023-05-02T06:33:33.731Z,94553.09
2023-05-02T06:36:01.695Z,94560.84
2023-05-02T06:38:28.702Z,94560.22
2023-05-02T06:40:55.118Z,94570.28
2023-05-02T06:43:21.580Z,94564.81
2023-05-02T06:45:48.035Z,94569.44
2023-05-02T06:48:15.190Z,94571.63
2023-05-02T06:50:41.659Z,94578.69
2023-05-02T06:53:08.053Z,94586.19
2023-05-02T06:55:34.538Z,94585.66
2023-05-02T06:58:01.001Z,94602.25
2023-05-02T07:00:27.503Z,94599.16
2023-05-02T07:02:53.976Z,94602.84
2023-05-02T07:05:20.478Z,94603.88
2023-05-02T07:07:46.945Z,94616.38
2023-05-02T07:10:13.513Z,94620.06
2023-05-02T07:12:39.919Z,94617.03
2023-05-02T07:15:07.030Z,94623.38
2023-05-02T07:17:33.807Z,94623.13
2023-05-02T07:20:00.772Z,94618.97
2023-05-02T07:22:27.553Z,94622.16
2023-05-02T07:25:02.239Z,94626.59
2023-05-02T07:27:28.757Z,94618.25
2023-05-02T07:29:55.201Z,94621.94
2023-05-02T07:32:22.373Z,94625.03
2023-05-02T07:34:48.988Z,94626.53
2023-05-02T07:37:15.452Z,94622.88
2023-05-02T07:39:41.912Z,94628.56
2023-05-02T07:42:08.372Z,94640.50
2023-05-02T07:44:35.985Z,94634.66
2023-05-02T07:47:02.716Z,94638.47
2023-05-02T07:49:29.354Z,94639.25
2023-05-02T07:51:56.168Z,94638.19
2023-05-02T07:54:22.964Z,94644.97
2023-05-02T07:56:49.372Z,94645.97
2023-05-02T07:59:15.908Z,94642.28
2023-05-02T08:01:42.932Z,94647.72
2023-05-02T08:04:11.632Z,94640.06
2023-05-02T08:06:38.547Z,94646.19
2023-05-02T08:09:05.034Z,94654.66
2023-05-02T08:11:31.515Z,94650.66
2023-05-02T08:13:57.950Z,94651.91
2023-05-02T08:16:24.523Z,94651.06
2023-05-02T08:18:50.975Z,94661.94
2023-05-02T08:21:17.442Z,94658.16
2023-05-02T08:23:45.201Z,94661.25
2023-05-02T08:26:11.658Z,94656.81
2023-05-02T08:28:38.077Z,94660.31
2023-05-02T08:31:04.496Z,94658.59
2023-05-02T08:33:31.022Z,94664.53
2023-05-02T08:35:57.450Z,94663.88
2023-05-02T08:38:23.868Z,94662.75
2023-05-02T08:40:50.482Z,94665.84
2023-05-02T08:43:18.002Z,94669.13
2023-05-02T08:45:45.492Z,94672.19
2023-05-02T08:48:13.797Z,94670.75
2023-05-02T08:50:42.521Z,94678.88
2023-05-02T08:53:10.852Z,94672.91
2023-05-02T08:55:42.283Z,94672.16
2023-05-02T08:58:10.710Z,94677.97
2023-05-02T09:00:41.714Z,94688.22
2023-05-02T09:03:26.967Z,94686.50
2023-05-02T09:05:59.129Z,94694.94
2023-05-02T09:08:25.656Z,94692.16
2023-05-02T09:10:52.321Z,94685.69
2023-05-02T09:13:36.045Z,94692.09
2023-05-02T09:16:16.706Z,94682.13
2023-05-02T09:18:45.633Z,94688.63
2023-05-02T09:21:19.688Z,94690.69
2023-05-02T09:23:49.531Z,94687.31
2023-05-02T09:26:19.978Z,94689.94
2023-05-02T09:28:48.800Z,94695.06
2023-05-02T09:31:26.930Z,94692.03
2023-05-02T09:34:08.655Z,94697.28
2023-05-02T09:36:41.061Z,94701.34
2023-05-02T09:39:16.290Z,94698.44
2023-05-02T09:41:43.966Z,94699.81
2023-05-02T09:44:12.516Z,94701.19
2023-05-02T09:46:43.997Z,94698.59
2023-05-02T09:49:10.788Z,94695.56
2023-05-02T09:51:37.507Z,94700.41
2023-05-02T09:54:04.479Z,94700.66
2023-05-02T09:56:31.011Z,94704.59
2023-05-02T09:59:16.466Z,94695.97
2023-05-02T10:01:43.616Z,94701.69
2023-05-02T10:04:18.725Z,94707.56
2023-05-02T10:06:46.209Z,94701.41
2023-05-02T10:09:19.684Z,94707.44
2023-05-02T10:11:53.062Z,94710.66
2023-05-02T10:14:22.486Z,94703.41
2023-05-02T10:17:05.727Z,94710.81
2023-05-02T10:19:54.656Z,94701.53
2023-05-02T10:22:23.022Z,94700.28
2023-05-02T10:24:50.428Z,94705.66
2023-05-02T10:27:17.170Z,94696.75
2023-05-02T10:29:44.176Z,94695.44
2023-05-02T10:32:11.135Z,94704.72
2023-05-02T10:34:39.036Z,94695.91
2023-05-02T10:37:05.504Z,94698.19
2023-05-02T10:39:32.590Z,94689.47
2023-05-02T10:42:02.165Z,94685.06
2023-05-02T10:44:36.330Z,94697.22
2023-05-02T10:47:25.299Z,94697.94
2023-05-02T10:50:02.404Z,94691.34
2023-05-02T10:52:32.737Z,94690.41
2023-05-02T10:55:21.938Z,94687.72
2023-05-02T10:57:57.443Z,94694.09
2023-05-02T11:00:34.103Z,94695.97
2023-05-02T11:03:01.939Z,94693.41
2023-05-02T11:05:28.864Z,94695.59
2023-05-02T11:08:19.325Z,94684.63
2023-05-02T11:10:47.268Z,94685.25
2023-05-02T11:13:13.854Z,94682.00
2023-05-02T11:15:40.291Z,94688.88
2023-05-02T11:18:13.986Z,94686.63
2023-05-02T11:20:45.462Z,94682.47
2023-05-02T11:23:15.393Z,94689.06
2023-05-02T11:26:03.365Z,94691.25
2023-05-02T11:28:48.381Z,94693.13
2023-05-02T11:31:27.251Z,94691.44
2023-05-02T11:34:01.346Z,94692.44
2023-05-02T11:36:33.412Z,94689.41
2023-05-02T11:39:01.462Z,94689.75
2023-05-02T11:41:43.396Z,94687.75
2023-05-02T11:44:10.299Z,94686.63
2023-05-02T11:46:37.365Z,94690.41
2023-05-02T11:49:06.174Z,94678.75
2023-05-02T11:51:33.753Z,94694.75
2023-05-02T11:54:00.364Z,94691.41
2023-05-02T11:56:27.422Z,94688.66
2023-05-02T11:59:01.231Z,94688.38
2023-05-02T12:01:27.953Z,94688.22
2023-05-02T12:04:08.248Z,94693.63
2023-05-02T12:06:35.316Z,94685.41
2023-05-02T12:09:17.846Z,94676.50
2023-05-02T12:11:44.779Z,94679.53
2023-05-02T12:14:11.269Z,94681.28
2023-05-02T12:16:37.911Z,94689.78
2023-05-02T12:19:04.786Z,94683.31
2023-05-02T12:21:33.094Z,94685.34
2023-05-02T12:24:01.150Z,94689.59
2023-05-02T12:26:30.818Z,94680.50
2023-05-02T12:28:58.921Z,94680.84
2023-05-02T12:31:26.669Z,94683.94
2023-05-02T12:33:57.216Z,94691.50
2023-05-02T12:36:24.206Z,94685.50
2023-05-02T12:38:52.932Z,94688.56
2023-05-02T12:41:31.406Z,94688.19
2023-05-02T12:44:00.572Z,94701.09
2023-05-02T12:46:28.332Z,94712.78
2023-05-02T12:49:11.917Z,94717.41
2023-05-02T12:51:39.792Z,94720.25
2023-05-02T12:54:07.039Z,94717.91
2023-05-02T12:56:40.605Z,94710.81
2023-05-02T12:59:07.976Z,94721.47
2023-05-02T13:01:34.804Z,94715.03
2023-05-02T13:04:01.511Z,94709.38
2023-05-02T13:06:28.011Z,94711.25
2023-05-02T13:08:54.502Z,94712.97
2023-05-02T13:11:21.011Z,94704.78
2023-05-02T13:13:47.534Z,94703.44
2023-05-02T13:16:14.120Z,94700.56
2023-05-02T13:18:40.787Z,94705.59
2023-05-02T13:21:07.569Z,94700.81
2023-05-02T13:23:34.073Z,94700.28
2023-05-02T13:26:00.495Z,94700.59
2023-05-02T13:28:27.038Z,94710.34
2023-05-02T13:30:53.551Z,94700.69
2023-05-02T13:33:19.991Z,94706.84
2023-05-02T13:35:46.615Z,94712.31
2023-05-02T13:38:13.126Z,94704.78
2023-05-02T13:40:39.681Z,94698.88
2023-05-02T13:43:06.232Z,94691.34
2023-05-02T13:45:32.983Z,94696.72
2023-05-02T13:47:59.470Z,94676.00
2023-05-02T13:50:25.988Z,94687.50
2023-05-02T13:52:52.433Z,94694.41
2023-05-02T13:55:19.690Z,94687.88
2023-05-02T13:57:46.409Z,94687.69
2023-05-02T14:00:13.548Z,94692.25
2023-05-02T14:02:40.144Z,94691.22
2023-05-02T14:05:07.325Z,94686.75
2023-05-02T14:07:33.786Z,94697.63
2023-05-02T14:10:00.658Z,94698.47
2023-05-02T14:12:27.449Z,94704.44
2023-05-02T14:14:53.876Z,94701.63
2023-05-02T14:17:21.310Z,94701.22
2023-05-02T14:19:47.832Z,94706.13
2023-05-02T14:22:14.313Z,94706.59
2023-05-02T14:24:41.046Z,94715.91
2023-05-02T14:27:12.804Z,94713.69
2023-05-02T14:29:40.033Z,94717.06
2023-05-02T14:32:07.235Z,94722.13
2023-05-02T14:34:33.798Z,94729.84
2023-05-02T14:37:00.321Z,94733.19
2023-05-02T14:39:27.633Z,94734.69
2023-05-02T14:41:54.188Z,94730.38
2023-05-02T14:44:20.747Z,94730.84
2023-05-02T14:46:47.297Z,94728.09
2023-05-02T14:49:13.724Z,94727.44
2023-05-02T14:51:40.292Z,94734.47
2023-05-02T14:54:07.159Z,94726.16
2023-05-02T14:56:33.717Z,94741.16
2023-05-02T14:59:00.359Z,94734.09
2023-05-02T15:01:26.901Z,94715.75
2023-05-02T15:04:06.055Z,94729.22
2023-05-02T15:06:35.626Z,94731.53
2023-05-02T15:09:02.788Z,94730.88
2023-05-02T15:11:29.209Z,94727.91
2023-05-02T15:13:57.555Z,94727.66
2023-05-02T15:16:26.977Z,94736.69
2023-05-02T15:18:53.849Z,94729.16
2023-05-02T15:21:20.497Z,94734.00
2023-05-02T15:23:47.433Z,94732.66
2023-05-02T15:26:14.145Z,94726.06
2023-05-02T15:28:40.872Z,94725.34
2023-05-02T15:31:07.370Z,94726.25
2023-05-02T15:33:33.851Z,94730.97
2023-05-02T15:36:00.570Z,94729.47
2023-05-02T15:38:27.876Z,94724.56
2023-05-02T15:40:58.733Z,94725.31
2023-05-02T15:43:26.137Z,94725.56
2023-05-02T15:45:57.401Z,94722.31
2023-05-02T15:48:27.577Z,94728.63
2023-05-02T15:50:54.001Z,94723.00
2023-05-02T15:53:22.936Z,94735.91
2023-05-02T15:55:52.636Z,94726.75
2023-05-02T15:58:19.715Z,94742.03
2023-05-02T16:00:51.783Z,94737.84
2023-05-02T16:03:18.463Z,94734.81
2023-05-02T16:05:44.946Z,94733.97
2023-05-02T16:08:11.416Z,94739.19
2023-05-02T16:10:40.204Z,94736.00
2023-05-02T16:13:06.658Z,94747.28
2023-05-02T16:15:33.266Z,94730.75
2023-05-02T16:17:59.909Z,94734.00
2023-05-02T16:20:27.679Z,94740.41
2023-05-02T16:22:54.430Z,94735.34
2023-05-02T16:25:21.144Z,94745.41
2023-05-02T16:27:47.592Z,94753.06
2023-05-02T16:30:15.704Z,94749.28
2023-05-02T16:32:42.284Z,94744.00
2023-05-02T16:35:12.300Z,94745.16
2023-05-02T16:37:40.911Z,94742.94
2023-05-02T16:40:11.118Z,94745.50
2023-05-02T16:42:38.267Z,94745.72
2023-05-02T16:45:05.071Z,94750.69
2023-05-02T16:47:31.984Z,94753.84
2023-05-02T16:49:59.472Z,94746.25
2023-05-02T16:52:27.786Z,94730.94
2023-05-02T16:54:54.872Z,94745.72
2023-05-02T16:57:21.502Z,94748.72
2023-05-02T16:59:50.646Z,94751.16
2023-05-02T17:02:19.222Z,94754.06
2023-05-02T17:04:45.977Z,94761.75
2023-05-02T17:07:12.543Z,94764.41
2023-05-02T17:09:41.335Z,94772.06
2023-05-02T17:12:11.474Z,94775.66
2023-05-02T17:14:40.377Z,94780.78
2023-05-02T17:17:06.900Z,94772.47
2023-05-02T17:19:33.411Z,94777.84
2023-05-02T17:22:01.390Z,94781.88
2023-05-02T17:24:29.939Z,94780.38
2023-05-02T17:26:56.896Z,94792.66
2023-05-02T17:29:23.370Z,94791.34
2023-05-02T17:31:49.821Z,94791.91
2023-05-02T17:34:16.335Z,94793.81
2023-05-02T17:36:43.561Z,94794.75
2023-05-02T17:39:11.495Z,94803.13
2023-05-02T17:41:38.127Z,94801.41
2023-05-02T17:44:07.288Z,94806.31
2023-05-02T17:46:33.832Z,94810.19
2023-05-02T17:49:00.971Z,94796.72
2023-05-02T17:51:27.916Z,94806.66
2023-05-02T17:53:54.506Z,94821.25
2023-05-02T17:56:21.024Z,94816.72
2023-05-02T17:58:47.458Z,94825.91
2023-05-02T18:01:14.339Z,94827.56
2023-05-02T18:03:41.723Z,94836.13
2023-05-02T18:06:08.575Z,94828.06
2023-05-02T18:08:35.181Z,94828.81
2023-05-02T18:11:03.226Z,94834.47
2023-05-02T18:13:29.785Z,94835.84
2023-05-02T18:15:57.326Z,94842.63
2023-05-02T18:18:23.999Z,94833.94
2023-05-02T18:20:50.580Z,94836.72
2023-05-02T18:23:17.065Z,94836.03
2023-05-02T18:25:44.116Z,94841.88
2023-05-02T18:28:10.657Z,94847.66
2023-05-02T18:30:37.908Z,94845.13
2023-05-02T18:33:06.314Z,94849.34
2023-05-02T18:35:33.286Z,94854.84
2023-05-02T18:37:59.716Z,94857.22
2023-05-02T18:40:26.132Z,94867.19
2023-05-02T18:42:52.594Z,94862.97
2023-05-02T18:45:19.121Z,94869.97
2023-05-02T18:47:45.531Z,94871.56
2023-05-02T18:50:11.986Z,94870.53
2023-05-02T18:52:38.474Z,94870.81
2023-05-02T18:55:06.105Z,94885.66
2023-05-02T18:57:33.816Z,94886.34
2023-05-02T19:00:00.944Z,94891.81
2023-05-02T19:02:27.655Z,94891.13
2023-05-02T19:04:54.401Z,94894.13
2023-05-02T19:07:20.818Z,94890.81
2023-05-02T19:09:47.261Z,94890.59
2023-05-02T19:12:13.682Z,94897.78
2023-05-02T19:14:40.274Z,94901.56
2023-05-02T19:17:06.857Z,94895.66
2023-05-02T19:19:33.289Z,94903.09
2023-05-02T19:21:59.697Z,94904.22
2023-05-02T19:24:26.354Z,94911.69
2023-05-02T19:26:53.248Z,94907.13
2023-05-02T19:29:19.670Z,94904.38
2023-05-02T19:31:46.335Z,94907.91
2023-05-02T19:34:12.962Z,94914.28
2023-05-02T19:36:39.446Z,94916.47
2023-05-02T19:39:06.292Z,94915.50
2023-05-02T19:41:32.830Z,94914.50
2023-05-02T19:43:59.928Z,94912.44
2023-05-02T19:46:26.904Z,94918.66
2023-05-02T19:48:53.470Z,94917.31
2023-05-02T19:51:25.681Z,94917.53
2023-05-02T19:53:58.459Z,94928.63
2023-05-02T19:56:28.710Z,94927.00
2023-05-02T19:58:58.548Z,94929.34
2023-05-02T20:01:28.221Z,94935.63
2023-05-02T20:03:55.090Z,94931.50
2023-05-02T20:06:21.708Z,94936.59
2023-05-02T20:08:48.151Z,94941.13
2023-05-02T20:11:14.589Z,94937.53
2023-05-02T20:13:41.025Z,94949.03
2023-05-02T20:16:07.591Z,94946.66
2023-05-02T20:18:34.124Z,94954.72
2023-05-02T20:21:00.562Z,94957.31
2023-05-02T20:23:27.012Z,94957.03
2023-05-02T20:25:53.406Z,94961.69
2023-05-02T20:28:19.875Z,94955.13
2023-05-02T20:30:46.398Z,94951.16
2023-05-02T20:33:16.029Z,94953.50
2023-05-02T20:35:44.456Z,94955.34
2023-05-02T20:38:11.121Z,94957.09
2023-05-02T20:40:39.652Z,94954.47
2023-05-02T20:43:06.503Z,94955.00
2023-05-02T20:45:33.385Z,94958.13
2023-05-02T20:47:59.878Z,94961.22
2023-05-02T20:50:27.139Z,94955.69
2023-05-02T20:52:54.276Z,94956.00
2023-05-02T20:55:22.641Z,94962.56
2023-05-02T20:57:53.017Z,94960.00
2023-05-02T21:00:22.335Z,94955.41
2023-05-02T21:02:49.022Z,94952.94
2023-05-02T21:05:15.714Z,94949.13
2023-05-02T21:07:42.151Z,94957.75
2023-05-02T21:10:09.319Z,94954.34
2023-05-02T21:12:35.771Z,94947.50
2023-05-02T21:15:02.412Z,94948.47
2023-05-02T21:17:28.944Z,94953.16
2023-05-02T21:19:58.329Z,94948.69
2023-05-02T21:22:24.789Z,94945.03
2023-05-02T21:24:51.314Z,94951.00
2023-05-02T21:27:17.754Z,94954.16
2023-05-02T21:29:44.226Z,94948.91
2023-05-02T21:32:10.767Z,94951.25
2023-05-02T21:34:37.361Z,94948.31
2023-05-02T21:37:04.066Z,94945.94
2023-05-02T21:39:30.556Z,94949.31
2023-05-02T21:41:57.008Z,94950.09
2023-05-02T21:44:23.417Z,94951.63
2023-05-02T21:46:50.712Z,94947.00
2023-05-02T21:49:17.212Z,94944.66
2023-05-02T21:51:43.652Z,94942.34
2023-05-02T21:54:10.195Z,94940.78
2023-05-02T21:56:36.664Z,94935.34
2023-05-02T21:59:03.420Z,94939.03
2023-05-02T22:01:30.006Z,94939.59
2023-05-02T22:03:57.937Z,94935.72
2023-05-02T22:06:24.787Z,94942.53
2023-05-02T22:08:51.485Z,94936.34
2023-05-02T22:11:18.045Z,94941.63
2023-05-02T22:13:44.543Z,94940.91
2023-05-02T22:16:11.032Z,94938.94
2023-05-02T22:18:37.662Z,94941.91
2023-05-02T22:21:04.125Z,94944.06
2023-05-02T22:23:31.127Z,94942.59
2023-05-02T22:25:57.701Z,94941.38
2023-05-02T22:28:24.420Z,94939.94
2023-05-02T22:30:50.936Z,94941.06
2023-05-02T22:33:17.439Z,94944.50
2023-05-02T22:35:43.845Z,94944.56
2023-05-02T22:38:15.038Z,94941.78
2023-05-02T22:40:41.475Z,94940.84
2023-05-02T22:43:08.308Z,94943.00
2023-05-02T22:45:36.416Z,94949.84
2023-05-02T22:48:03.066Z,94935.50
2023-05-02T22:50:30.182Z,94953.00
2023-05-02T22:52:57.118Z,94941.84
2023-05-02T22:55:24.324Z,94951.81
2023-05-02T22:57:50.951Z,94947.16
2023-05-02T23:00:17.601Z,94950.09
2023-05-02T23:02:44.502Z,94943.38
2023-05-02T23:05:11.029Z,94954.84
2023-05-02T23:07:37.766Z,94953.84
2023-05-02T23:10:04.828Z,94950.50
2023-05-02T23:12:31.477Z,94953.41
2023-05-02T23:14:58.048Z,94950.56
2023-05-02T23:17:24.553Z,94958.16
2023-05-02T23:19:51.040Z,94951.94
2023-05-02T23:22:17.495Z,94958.75
2023-05-02T23:24:47.307Z,94963.22
2023-05-02T23:27:13.734Z,94960.63
2023-05-02T23:29:40.198Z,94954.94
2023-05-02T23:32:08.042Z,94955.78
2023-05-02T23:34:36.505Z,94953.97
2023-05-02T23:37:05.645Z,94953.75
2023-05-02T23:39:32.654Z,94959.50
2023-05-02T23:42:00.622Z,94952.72
2023-05-02T23:44:27.076Z,94954.81
2023-05-02T23:46:53.601Z,94961.59
2023-05-02T23:49:20.489Z,94954.84
2023-05-02T23:51:47.163Z,94960.63
2023-05-02T23:54:13.617Z,94942.94
2023-05-02T23:56:40.022Z,94958.03
2023-05-02T23:59:06.492Z,94957.53
